sensor_id;sensor_type;location;lat;lon;timestamp;pressure;altitude;pressure_sealevel;temperature;humidity
70256;BME280;57669;52.624;-1.688;2023-02-21T00:00:37;101469.84;;;9.68;53.59
70256;BME280;57669;52.624;-1.688;2023-02-21T00:03:03;101472.93;;;9.84;52.37
70256;BME280;57669;52.624;-1.688;2023-02-21T00:05:29;101469.04;;;9.83;52.24
70256;BME280;57669;52.624;-1.688;2023-02-21T00:07:54;101464.06;;;10.08;51.92
70256;BME280;57669;52.624;-1.688;2023-02-21T00:10:20;101462.80;;;9.45;53.15
70256;BME280;57669;52.624;-1.688;2023-02-21T00:12:46;101465.31;;;9.72;52.55
70256;BME280;57669;52.624;-1.688;2023-02-21T00:15:12;101465.90;;;9.78;52.47
70256;BME280;57669;52.624;-1.688;2023-02-21T00:17:37;101466.79;;;9.44;53.03
70256;BME280;57669;52.624;-1.688;2023-02-21T00:20:04;101464.28;;;9.00;53.96
70256;BME280;57669;52.624;-1.688;2023-02-21T00:22:29;101463.65;;;10.30;52.35
70256;BME280;57669;52.624;-1.688;2023-02-21T00:24:55;101453.44;;;9.28;54.46
70256;BME280;57669;52.624;-1.688;2023-02-21T00:27:21;101449.51;;;9.38;54.18
70256;BME280;57669;52.624;-1.688;2023-02-21T00:29:47;101448.80;;;8.47;56.10
70256;BME280;57669;52.624;-1.688;2023-02-21T00:32:12;101447.39;;;8.95;55.11
70256;BME280;57669;52.624;-1.688;2023-02-21T00:34:38;101445.30;;;8.83;54.78
70256;BME280;57669;52.624;-1.688;2023-02-21T00:37:04;101453.46;;;8.54;55.79
70256;BME280;57669;52.624;-1.688;2023-02-21T00:39:29;101448.58;;;9.23;54.46
70256;BME280;57669;52.624;-1.688;2023-02-21T00:41:55;101453.01;;;9.07;53.66
70256;BME280;57669;52.624;-1.688;2023-02-21T00:44:21;101455.15;;;9.79;53.15
70256;BME280;57669;52.624;-1.688;2023-02-21T00:46:47;101455.11;;;9.74;52.35
70256;BME280;57669;52.624;-1.688;2023-02-21T00:49:12;101456.74;;;9.48;52.77
70256;BME280;57669;52.624;-1.688;2023-02-21T00:51:38;101448.73;;;9.60;53.56
70256;BME280;57669;52.624;-1.688;2023-02-21T00:54:04;101448.45;;;9.90;52.38
70256;BME280;57669;52.624;-1.688;2023-02-21T00:56:30;101446.95;;;9.35;53.30
70256;BME280;57669;52.624;-1.688;2023-02-21T00:58:55;101442.10;;;9.62;52.39
70256;BME280;57669;52.624;-1.688;2023-02-21T01:01:21;101441.97;;;9.34;52.63
70256;BME280;57669;52.624;-1.688;2023-02-21T01:03:47;101437.10;;;9.25;52.99
70256;BME280;57669;52.624;-1.688;2023-02-21T01:06:13;101433.48;;;9.72;52.43
70256;BME280;57669;52.624;-1.688;2023-02-21T01:08:41;101430.80;;;9.04;53.82
70256;BME280;57669;52.624;-1.688;2023-02-21T01:11:04;101422.98;;;9.08;54.33
70256;BME280;57669;52.624;-1.688;2023-02-21T01:13:30;101418.88;;;8.33;55.85
70256;BME280;57669;52.624;-1.688;2023-02-21T01:15:56;101415.37;;;9.06;54.36
70256;BME280;57669;52.624;-1.688;2023-02-21T01:18:22;101414.19;;;8.87;54.68
70256;BME280;57669;52.624;-1.688;2023-02-21T01:20:47;101416.33;;;9.08;54.37
70256;BME280;57669;52.624;-1.688;2023-02-21T01:23:13;101413.55;;;8.43;55.63
70256;BME280;57669;52.624;-1.688;2023-02-21T01:25:39;101409.24;;;8.50;55.66
70256;BME280;57669;52.624;-1.688;2023-02-21T01:28:05;101409.22;;;8.82;55.87
70256;BME280;57669;52.624;-1.688;2023-02-21T01:30:31;101399.14;;;8.84;54.97
70256;BME280;57669;52.624;-1.688;2023-02-21T01:32:56;101387.40;;;8.81;55.33
70256;BME280;57669;52.624;-1.688;2023-02-21T01:35:22;101389.14;;;8.62;55.63
70256;BME280;57669;52.624;-1.688;2023-02-21T01:37:48;101389.48;;;8.38;55.64
70256;BME280;57669;52.624;-1.688;2023-02-21T01:40:14;101390.22;;;8.48;56.00
70256;BME280;57669;52.624;-1.688;2023-02-21T01:42:39;101387.54;;;8.73;55.21
70256;BME280;57669;52.624;-1.688;2023-02-21T01:47:31;101386.76;;;8.64;55.32
70256;BME280;57669;52.624;-1.688;2023-02-21T01:49:57;101383.54;;;8.95;54.50
70256;BME280;57669;52.624;-1.688;2023-02-21T01:52:23;101384.61;;;8.94;54.20
70256;BME280;57669;52.624;-1.688;2023-02-21T01:54:51;101379.26;;;9.26;53.68
70256;BME280;57669;52.624;-1.688;2023-02-21T01:57:14;101372.84;;;8.50;55.34
70256;BME280;57669;52.624;-1.688;2023-02-21T01:59:40;101372.66;;;8.34;54.63
70256;BME280;57669;52.624;-1.688;2023-02-21T02:02:12;101371.29;;;9.12;54.13
70256;BME280;57669;52.624;-1.688;2023-02-21T02:04:32;101368.52;;;8.46;56.48
70256;BME280;57669;52.624;-1.688;2023-02-21T02:06:57;101366.68;;;8.44;56.14
70256;BME280;57669;52.624;-1.688;2023-02-21T02:09:23;101361.19;;;8.93;54.67
70256;BME280;57669;52.624;-1.688;2023-02-21T02:12:01;101362.44;;;8.54;55.29
70256;BME280;57669;52.624;-1.688;2023-02-21T02:14:27;101361.90;;;8.56;55.06
70256;BME280;57669;52.624;-1.688;2023-02-21T02:16:44;101360.71;;;8.83;54.43
70256;BME280;57669;52.624;-1.688;2023-02-21T02:19:21;101355.80;;;8.80;54.35
70256;BME280;57669;52.624;-1.688;2023-02-21T02:21:41;101355.14;;;8.67;55.26
70256;BME280;57669;52.624;-1.688;2023-02-21T02:24:14;101345.51;;;8.48;55.55
70256;BME280;57669;52.624;-1.688;2023-02-21T02:29:04;101343.23;;;8.19;56.71
70256;BME280;57669;52.624;-1.688;2023-02-21T02:31:26;101348.17;;;7.14;58.87
70256;BME280;57669;52.624;-1.688;2023-02-21T02:33:58;101349.26;;;7.03;59.47
70256;BME280;57669;52.624;-1.688;2023-02-21T02:36:09;101346.01;;;7.26;59.57
70256;BME280;57669;52.624;-1.688;2023-02-21T02:38:35;101343.91;;;7.08;59.96
70256;BME280;57669;52.624;-1.688;2023-02-21T02:41:02;101341.88;;;6.95;59.68
70256;BME280;57669;52.624;-1.688;2023-02-21T02:43:29;101342.29;;;6.56;60.52
70256;BME280;57669;52.624;-1.688;2023-02-21T02:45:53;101336.98;;;7.60;59.22
70256;BME280;57669;52.624;-1.688;2023-02-21T02:48:20;101340.95;;;7.12;59.81
70256;BME280;57669;52.624;-1.688;2023-02-21T02:50:45;101332.12;;;6.62;61.13
70256;BME280;57669;52.624;-1.688;2023-02-21T02:53:07;101335.00;;;7.53;59.07
70256;BME280;57669;52.624;-1.688;2023-02-21T02:55:38;101334.54;;;7.90;58.15
70256;BME280;57669;52.624;-1.688;2023-02-21T02:57:59;101331.13;;;8.21;56.42
70256;BME280;57669;52.624;-1.688;2023-02-21T03:00:25;101339.91;;;7.69;57.55
70256;BME280;57669;52.624;-1.688;2023-02-21T03:03:02;101339.13;;;7.91;56.84
70256;BME280;57669;52.624;-1.688;2023-02-21T03:05:27;101340.84;;;8.30;56.15
70256;BME280;57669;52.624;-1.688;2023-02-21T03:07:49;101339.99;;;8.31;55.77
70256;BME280;57669;52.624;-1.688;2023-02-21T03:10:13;101333.06;;;8.18;55.23
70256;BME280;57669;52.624;-1.688;2023-02-21T03:12:37;101327.79;;;8.35;55.29
70256;BME280;57669;52.624;-1.688;2023-02-21T03:15:02;101332.65;;;8.82;53.75
70256;BME280;57669;52.624;-1.688;2023-02-21T03:17:28;101334.62;;;8.58;54.12
70256;BME280;57669;52.624;-1.688;2023-02-21T03:19:52;101334.72;;;8.65;54.06
70256;BME280;57669;52.624;-1.688;2023-02-21T03:22:20;101332.86;;;8.24;54.81
70256;BME280;57669;52.624;-1.688;2023-02-21T03:24:44;101338.73;;;8.52;54.23
70256;BME280;57669;52.624;-1.688;2023-02-21T03:27:09;101332.30;;;8.83;52.24
70256;BME280;57669;52.624;-1.688;2023-02-21T03:29:35;101334.56;;;8.93;52.22
70256;BME280;57669;52.624;-1.688;2023-02-21T03:32:04;101331.91;;;9.12;51.81
70256;BME280;57669;52.624;-1.688;2023-02-21T03:34:26;101330.19;;;8.93;51.90
70256;BME280;57669;52.624;-1.688;2023-02-21T03:36:51;101331.04;;;8.82;53.30
70256;BME280;57669;52.624;-1.688;2023-02-21T03:39:17;101329.32;;;8.33;54.40
70256;BME280;57669;52.624;-1.688;2023-02-21T03:41:43;101327.62;;;8.83;53.67
70256;BME280;57669;52.624;-1.688;2023-02-21T03:44:09;101323.56;;;8.13;55.09
70256;BME280;57669;52.624;-1.688;2023-02-21T03:46:34;101327.30;;;8.56;54.19
70256;BME280;57669;52.624;-1.688;2023-02-21T03:49:01;101329.28;;;8.50;54.32
70256;BME280;57669;52.624;-1.688;2023-02-21T03:51:26;101325.22;;;8.01;55.81
70256;BME280;57669;52.624;-1.688;2023-02-21T03:53:52;101315.75;;;8.02;55.29
70256;BME280;57669;52.624;-1.688;2023-02-21T03:56:18;101317.09;;;7.75;56.87
70256;BME280;57669;52.624;-1.688;2023-02-21T03:58:43;101317.98;;;7.39;57.80
70256;BME280;57669;52.624;-1.688;2023-02-21T04:01:09;101318.76;;;7.18;58.23
70256;BME280;57669;52.624;-1.688;2023-02-21T04:03:35;101312.28;;;7.96;56.70
70256;BME280;57669;52.624;-1.688;2023-02-21T04:06:01;101315.93;;;7.66;57.19
70256;BME280;57669;52.624;-1.688;2023-02-21T04:08:27;101321.69;;;7.62;57.19
70256;BME280;57669;52.624;-1.688;2023-02-21T04:10:52;101312.93;;;8.13;55.99
70256;BME280;57669;52.624;-1.688;2023-02-21T04:13:18;101316.74;;;7.89;56.54
70256;BME280;57669;52.624;-1.688;2023-02-21T04:15:44;101317.75;;;8.31;55.65
70256;BME280;57669;52.624;-1.688;2023-02-21T04:18:10;101315.73;;;7.69;56.91
70256;BME280;57669;52.624;-1.688;2023-02-21T04:20:36;101318.16;;;7.06;58.72
70256;BME280;57669;52.624;-1.688;2023-02-21T04:23:01;101317.95;;;7.09;59.47
70256;BME280;57669;52.624;-1.688;2023-02-21T04:25:27;101312.38;;;6.87;60.46
70256;BME280;57669;52.624;-1.688;2023-02-21T04:27:53;101308.56;;;7.42;58.39
70256;BME280;57669;52.624;-1.688;2023-02-21T04:30:19;101304.27;;;6.80;61.20
70256;BME280;57669;52.624;-1.688;2023-02-21T04:32:54;101302.78;;;6.71;61.07
70256;BME280;57669;52.624;-1.688;2023-02-21T04:35:10;101300.46;;;7.22;59.56
70256;BME280;57669;52.624;-1.688;2023-02-21T04:37:36;101299.21;;;7.15;59.49
70256;BME280;57669;52.624;-1.688;2023-02-21T04:40:02;101295.82;;;6.96;59.96
70256;BME280;57669;52.624;-1.688;2023-02-21T04:42:28;101289.02;;;8.12;57.53
70256;BME280;57669;52.624;-1.688;2023-02-21T04:44:53;101290.89;;;7.63;57.38
70256;BME280;57669;52.624;-1.688;2023-02-21T04:47:19;101298.09;;;7.51;58.79
70256;BME280;57669;52.624;-1.688;2023-02-21T04:49:45;101290.78;;;7.61;57.44
70256;BME280;57669;52.624;-1.688;2023-02-21T04:52:11;101295.11;;;7.40;58.31
70256;BME280;57669;52.624;-1.688;2023-02-21T04:54:37;101294.80;;;7.42;58.87
70256;BME280;57669;52.624;-1.688;2023-02-21T04:57:03;101285.68;;;7.50;57.78
70256;BME280;57669;52.624;-1.688;2023-02-21T04:59:28;101287.06;;;7.31;58.19
70256;BME280;57669;52.624;-1.688;2023-02-21T05:01:54;101283.71;;;7.84;57.07
70256;BME280;57669;52.624;-1.688;2023-02-21T05:04:20;101282.56;;;7.75;57.16
70256;BME280;57669;52.624;-1.688;2023-02-21T05:06:46;101283.15;;;7.82;57.21
70256;BME280;57669;52.624;-1.688;2023-02-21T05:09:11;101289.56;;;7.33;58.11
70256;BME280;57669;52.624;-1.688;2023-02-21T05:11:38;101287.53;;;7.35;58.13
70256;BME280;57669;52.624;-1.688;2023-02-21T05:14:03;101284.00;;;8.19;56.33
70256;BME280;57669;52.624;-1.688;2023-02-21T05:16:29;101287.59;;;8.11;56.42
70256;BME280;57669;52.624;-1.688;2023-02-21T05:18:55;101287.80;;;7.82;57.09
70256;BME280;57669;52.624;-1.688;2023-02-21T05:21:20;101284.74;;;7.80;57.17
70256;BME280;57669;52.624;-1.688;2023-02-21T05:23:46;101284.22;;;7.69;57.30
70256;BME280;57669;52.624;-1.688;2023-02-21T05:26:12;101284.45;;;8.29;55.72
70256;BME280;57669;52.624;-1.688;2023-02-21T05:28:43;101281.78;;;9.11;54.16
70256;BME280;57669;52.624;-1.688;2023-02-21T05:31:04;101281.65;;;8.18;55.87
70256;BME280;57669;52.624;-1.688;2023-02-21T05:33:29;101281.52;;;8.19;55.98
70256;BME280;57669;52.624;-1.688;2023-02-21T05:36:00;101285.87;;;8.79;54.84
70256;BME280;57669;52.624;-1.688;2023-02-21T05:38:22;101290.45;;;8.56;54.28
70256;BME280;57669;52.624;-1.688;2023-02-21T05:40:56;101287.41;;;8.98;53.27
70256;BME280;57669;52.624;-1.688;2023-02-21T05:43:13;101282.44;;;8.73;53.46
70256;BME280;57669;52.624;-1.688;2023-02-21T05:45:38;101282.89;;;8.38;53.90
70256;BME280;57669;52.624;-1.688;2023-02-21T05:48:04;101282.43;;;8.80;52.63
70256;BME280;57669;52.624;-1.688;2023-02-21T05:50:30;101283.89;;;8.48;53.76
70256;BME280;57669;52.624;-1.688;2023-02-21T05:52:56;101284.50;;;8.99;53.05
70256;BME280;57669;52.624;-1.688;2023-02-21T05:55:21;101286.33;;;9.19;52.79
70256;BME280;57669;52.624;-1.688;2023-02-21T05:57:47;101283.43;;;9.23;52.61
70256;BME280;57669;52.624;-1.688;2023-02-21T06:00:15;101285.23;;;8.95;52.08
70256;BME280;57669;52.624;-1.688;2023-02-21T06:02:38;101281.47;;;9.09;52.22
70256;BME280;57669;52.624;-1.688;2023-02-21T06:05:05;101279.71;;;9.02;52.00
70256;BME280;57669;52.624;-1.688;2023-02-21T06:07:30;101277.48;;;8.63;52.02
70256;BME280;57669;52.624;-1.688;2023-02-21T06:09:56;101276.52;;;8.47;53.98
70256;BME280;57669;52.624;-1.688;2023-02-21T06:12:22;101275.09;;;7.72;54.62
70256;BME280;57669;52.624;-1.688;2023-02-21T06:14:47;101270.22;;;8.18;54.25
70256;BME280;57669;52.624;-1.688;2023-02-21T06:17:13;101267.41;;;7.79;54.77
70256;BME280;57669;52.624;-1.688;2023-02-21T06:19:39;101263.18;;;8.28;53.76
70256;BME280;57669;52.624;-1.688;2023-02-21T06:22:05;101262.72;;;8.44;53.54
70256;BME280;57669;52.624;-1.688;2023-02-21T06:24:30;101261.40;;;8.55;53.24
70256;BME280;57669;52.624;-1.688;2023-02-21T06:26:56;101263.38;;;8.46;53.12
70256;BME280;57669;52.624;-1.688;2023-02-21T06:29:22;101265.60;;;9.17;51.80
70256;BME280;57669;52.624;-1.688;2023-02-21T06:31:48;101266.49;;;8.72;52.69
70256;BME280;57669;52.624;-1.688;2023-02-21T06:34:14;101260.17;;;8.92;52.73
70256;BME280;57669;52.624;-1.688;2023-02-21T06:36:39;101258.86;;;8.93;52.91
70256;BME280;57669;52.624;-1.688;2023-02-21T06:39:05;101262.09;;;9.47;51.30
70256;BME280;57669;52.624;-1.688;2023-02-21T06:41:46;101258.72;;;9.25;52.31
70256;BME280;57669;52.624;-1.688;2023-02-21T06:43:58;101256.81;;;8.53;52.69
70256;BME280;57669;52.624;-1.688;2023-02-21T06:46:25;101259.03;;;8.76;52.34
70256;BME280;57669;52.624;-1.688;2023-02-21T06:48:49;101252.59;;;9.21;51.24
70256;BME280;57669;52.624;-1.688;2023-02-21T06:51:14;101249.30;;;8.94;51.74
70256;BME280;57669;52.624;-1.688;2023-02-21T06:53:40;101245.72;;;9.27;51.02
70256;BME280;57669;52.624;-1.688;2023-02-21T06:56:06;101242.59;;;9.87;49.98
70256;BME280;57669;52.624;-1.688;2023-02-21T06:58:31;101246.42;;;10.23;49.06
70256;BME280;57669;52.624;-1.688;2023-02-21T07:00:57;101247.36;;;9.49;50.30
70256;BME280;57669;52.624;-1.688;2023-02-21T07:03:23;101247.43;;;9.46;50.82
70256;BME280;57669;52.624;-1.688;2023-02-21T07:05:49;101246.27;;;9.12;50.99
70256;BME280;57669;52.624;-1.688;2023-02-21T07:08:14;101248.29;;;9.08;52.01
70256;BME280;57669;52.624;-1.688;2023-02-21T07:10:40;101245.88;;;9.32;50.54
70256;BME280;57669;52.624;-1.688;2023-02-21T07:13:06;101237.91;;;9.11;50.72
70256;BME280;57669;52.624;-1.688;2023-02-21T07:15:32;101236.57;;;9.33;50.39
70256;BME280;57669;52.624;-1.688;2023-02-21T07:17:58;101234.50;;;9.54;50.15
70256;BME280;57669;52.624;-1.688;2023-02-21T07:20:24;101236.22;;;9.03;51.16
70256;BME280;57669;52.624;-1.688;2023-02-21T07:22:49;101243.83;;;8.62;51.87
70256;BME280;57669;52.624;-1.688;2023-02-21T07:25:18;101236.91;;;8.95;51.49
70256;BME280;57669;52.624;-1.688;2023-02-21T07:27:41;101240.84;;;9.02;51.90
70256;BME280;57669;52.624;-1.688;2023-02-21T07:30:07;101238.69;;;9.26;50.87
70256;BME280;57669;52.624;-1.688;2023-02-21T07:32:32;101238.11;;;8.77;52.02
70256;BME280;57669;52.624;-1.688;2023-02-21T07:37:24;101239.88;;;9.44;50.63
70256;BME280;57669;52.624;-1.688;2023-02-21T07:39:50;101236.98;;;8.59;51.63
70256;BME280;57669;52.624;-1.688;2023-02-21T07:42:15;101231.29;;;8.97;50.82
70256;BME280;57669;52.624;-1.688;2023-02-21T07:44:41;101231.43;;;9.39;50.65
70256;BME280;57669;52.624;-1.688;2023-02-21T07:47:07;101232.12;;;8.61;51.56
70256;BME280;57669;52.624;-1.688;2023-02-21T07:49:37;101232.67;;;9.48;50.45
70256;BME280;57669;52.624;-1.688;2023-02-21T07:51:58;101234.98;;;9.02;51.39
70256;BME280;57669;52.624;-1.688;2023-02-21T07:54:24;101238.22;;;8.96;52.30
70256;BME280;57669;52.624;-1.688;2023-02-21T07:56:50;101237.18;;;8.89;51.46
70256;BME280;57669;52.624;-1.688;2023-02-21T07:59:16;101236.67;;;9.64;50.28
70256;BME280;57669;52.624;-1.688;2023-02-21T08:01:41;101235.21;;;9.52;51.24
70256;BME280;57669;52.624;-1.688;2023-02-21T08:04:07;101239.21;;;9.49;50.43
70256;BME280;57669;52.624;-1.688;2023-02-21T08:06:33;101236.15;;;9.36;51.05
70256;BME280;57669;52.624;-1.688;2023-02-21T08:08:59;101241.21;;;8.55;53.42
70256;BME280;57669;52.624;-1.688;2023-02-21T08:11:25;101244.07;;;8.86;52.73
70256;BME280;57669;52.624;-1.688;2023-02-21T08:13:50;101247.98;;;8.70;53.76
70256;BME280;57669;52.624;-1.688;2023-02-21T08:16:16;101249.59;;;9.24;51.94
70256;BME280;57669;52.624;-1.688;2023-02-21T08:18:42;101250.88;;;8.80;51.93
70256;BME280;57669;52.624;-1.688;2023-02-21T08:21:09;101249.06;;;10.09;50.46
70256;BME280;57669;52.624;-1.688;2023-02-21T08:23:34;101251.73;;;9.26;51.98
70256;BME280;57669;52.624;-1.688;2023-02-21T08:26:01;101252.46;;;8.55;53.95
70256;BME280;57669;52.624;-1.688;2023-02-21T08:28:25;101253.17;;;8.52;54.02
70256;BME280;57669;52.624;-1.688;2023-02-21T08:30:51;101258.43;;;9.45;52.78
70256;BME280;57669;52.624;-1.688;2023-02-21T08:33:17;101264.10;;;8.56;54.04
70256;BME280;57669;52.624;-1.688;2023-02-21T08:35:43;101266.46;;;8.53;54.52
70256;BME280;57669;52.624;-1.688;2023-02-21T08:38:08;101265.25;;;8.62;53.85
70256;BME280;57669;52.624;-1.688;2023-02-21T08:40:34;101265.97;;;8.42;53.50
70256;BME280;57669;52.624;-1.688;2023-02-21T08:43:00;101261.22;;;8.70;53.40
70256;BME280;57669;52.624;-1.688;2023-02-21T08:45:27;101264.55;;;8.97;52.37
70256;BME280;57669;52.624;-1.688;2023-02-21T08:47:52;101262.77;;;8.80;52.66
70256;BME280;57669;52.624;-1.688;2023-02-21T08:50:19;101259.45;;;8.32;53.48
70256;BME280;57669;52.624;-1.688;2023-02-21T08:52:45;101261.42;;;8.34;53.60
70256;BME280;57669;52.624;-1.688;2023-02-21T08:55:09;101261.91;;;8.39;53.71
70256;BME280;57669;52.624;-1.688;2023-02-21T08:57:35;101259.90;;;8.03;55.77
70256;BME280;57669;52.624;-1.688;2023-02-21T09:00:16;101268.68;;;7.35;57.50
70256;BME280;57669;52.624;-1.688;2023-02-21T09:02:41;101259.76;;;8.54;55.62
70256;BME280;57669;52.624;-1.688;2023-02-21T09:04:52;101258.84;;;7.86;55.45
70256;BME280;57669;52.624;-1.688;2023-02-21T09:07:20;101261.79;;;7.85;55.75
70256;BME280;57669;52.624;-1.688;2023-02-21T09:09:48;101264.38;;;7.73;55.15
70256;BME280;57669;52.624;-1.688;2023-02-21T09:12:10;101260.39;;;7.79;55.24
70256;BME280;57669;52.624;-1.688;2023-02-21T09:14:35;101257.65;;;8.14;55.34
70256;BME280;57669;52.624;-1.688;2023-02-21T09:17:01;101253.17;;;7.72;55.68
70256;BME280;57669;52.624;-1.688;2023-02-21T09:19:41;101253.49;;;7.40;55.57
70256;BME280;57669;52.624;-1.688;2023-02-21T09:21:52;101256.72;;;7.77;54.65
70256;BME280;57669;52.624;-1.688;2023-02-21T09:24:17;101253.35;;;8.63;53.68
70256;BME280;57669;52.624;-1.688;2023-02-21T09:26:43;101249.32;;;8.35;54.38
70256;BME280;57669;52.624;-1.688;2023-02-21T09:29:09;101247.18;;;8.66;53.77
70256;BME280;57669;52.624;-1.688;2023-02-21T09:31:34;101250.26;;;8.75;53.49
70256;BME280;57669;52.624;-1.688;2023-02-21T09:34:00;101242.01;;;7.80;55.98
70256;BME280;57669;52.624;-1.688;2023-02-21T09:36:26;101238.83;;;7.87;55.78
70256;BME280;57669;52.624;-1.688;2023-02-21T09:38:52;101242.95;;;8.46;55.23
70256;BME280;57669;52.624;-1.688;2023-02-21T09:41:17;101238.50;;;8.94;53.54
70256;BME280;57669;52.624;-1.688;2023-02-21T09:43:44;101241.08;;;8.78;53.20
70256;BME280;57669;52.624;-1.688;2023-02-21T09:46:12;101237.70;;;8.30;53.77
70256;BME280;57669;52.624;-1.688;2023-02-21T09:48:34;101233.53;;;8.28;53.11
70256;BME280;57669;52.624;-1.688;2023-02-21T09:51:04;101233.56;;;8.58;52.40
70256;BME280;57669;52.624;-1.688;2023-02-21T09:53:28;101230.48;;;9.03;51.09
70256;BME280;57669;52.624;-1.688;2023-02-21T09:55:55;101234.14;;;9.26;51.99
70256;BME280;57669;52.624;-1.688;2023-02-21T09:58:19;101233.49;;;8.27;52.27
70256;BME280;57669;52.624;-1.688;2023-02-21T10:00:42;101227.85;;;8.88;51.24
70256;BME280;57669;52.624;-1.688;2023-02-21T10:03:23;101224.64;;;8.35;53.10
70256;BME280;57669;52.624;-1.688;2023-02-21T10:05:41;101222.83;;;8.38;52.31
70256;BME280;57669;52.624;-1.688;2023-02-21T10:08:05;101218.74;;;9.63;49.92
70256;BME280;57669;52.624;-1.688;2023-02-21T10:10:29;101218.13;;;8.65;50.56
70256;BME280;57669;52.624;-1.688;2023-02-21T10:12:54;101216.67;;;8.63;50.55
70256;BME280;57669;52.624;-1.688;2023-02-21T10:15:30;101216.97;;;9.59;48.88
70256;BME280;57669;52.624;-1.688;2023-02-21T10:17:46;101215.85;;;9.50;49.30
70256;BME280;57669;52.624;-1.688;2023-02-21T10:20:14;101211.65;;;8.60;51.01
70256;BME280;57669;52.624;-1.688;2023-02-21T10:22:37;101214.66;;;8.15;52.17
70256;BME280;57669;52.624;-1.688;2023-02-21T10:25:00;101217.11;;;8.27;52.20
70256;BME280;57669;52.624;-1.688;2023-02-21T10:27:30;101217.04;;;8.12;52.46
70256;BME280;57669;52.624;-1.688;2023-02-21T10:29:54;101211.81;;;7.80;52.93
70256;BME280;57669;52.624;-1.688;2023-02-21T10:32:17;101211.47;;;7.90;52.34
70256;BME280;57669;52.624;-1.688;2023-02-21T10:34:44;101216.21;;;7.27;53.54
70256;BME280;57669;52.624;-1.688;2023-02-21T10:37:21;101219.67;;;8.73;51.48
70256;BME280;57669;52.624;-1.688;2023-02-21T10:39:40;101219.34;;;8.80;50.99
70256;BME280;57669;52.624;-1.688;2023-02-21T10:42:00;101223.09;;;8.40;52.23
70256;BME280;57669;52.624;-1.688;2023-02-21T10:44:28;101225.44;;;8.91;50.26
70256;BME280;57669;52.624;-1.688;2023-02-21T10:47:00;101220.61;;;8.64;50.69
70256;BME280;57669;52.624;-1.688;2023-02-21T10:49:22;101218.27;;;7.88;52.80
70256;BME280;57669;52.624;-1.688;2023-02-21T10:51:43;101218.60;;;8.26;51.71
70256;BME280;57669;52.624;-1.688;2023-02-21T10:54:16;101218.45;;;9.11;50.34
70256;BME280;57669;52.624;-1.688;2023-02-21T10:56:37;101219.56;;;8.83;51.44
70256;BME280;57669;52.624;-1.688;2023-02-21T10:59:03;101217.48;;;8.22;53.12
70256;BME280;57669;52.624;-1.688;2023-02-21T11:01:33;101220.99;;;8.70;52.10
70256;BME280;57669;52.624;-1.688;2023-02-21T11:03:54;101221.23;;;8.50;52.15
70256;BME280;57669;52.624;-1.688;2023-02-21T11:06:23;101221.70;;;8.05;52.23
70256;BME280;57669;52.624;-1.688;2023-02-21T11:08:43;101219.03;;;8.05;52.90
70256;BME280;57669;52.624;-1.688;2023-02-21T11:11:10;101220.01;;;8.51;52.04
70256;BME280;57669;52.624;-1.688;2023-02-21T11:13:35;101217.27;;;7.88;53.37
70256;BME280;57669;52.624;-1.688;2023-02-21T11:16:06;101212.81;;;8.42;51.69
70256;BME280;57669;52.624;-1.688;2023-02-21T11:18:26;101209.43;;;8.16;52.29
70256;BME280;57669;52.624;-1.688;2023-02-21T11:20:52;101210.09;;;8.25;53.49
70256;BME280;57669;52.624;-1.688;2023-02-21T11:23:22;101207.78;;;7.88;53.13
70256;BME280;57669;52.624;-1.688;2023-02-21T11:25:44;101202.87;;;7.95;53.34
70256;BME280;57669;52.624;-1.688;2023-02-21T11:28:17;101209.08;;;8.41;52.80
70256;BME280;57669;52.624;-1.688;2023-02-21T11:30:38;101204.54;;;8.66;52.14
70256;BME280;57669;52.624;-1.688;2023-02-21T11:33:03;101199.45;;;7.57;53.60
70256;BME280;57669;52.624;-1.688;2023-02-21T11:35:29;101200.11;;;7.95;53.06
70256;BME280;57669;52.624;-1.688;2023-02-21T11:37:55;101194.94;;;7.38;54.97
70256;BME280;57669;52.624;-1.688;2023-02-21T11:40:23;101189.98;;;7.93;53.87
70256;BME280;57669;52.624;-1.688;2023-02-21T11:42:44;101187.42;;;8.36;52.89
70256;BME280;57669;52.624;-1.688;2023-02-21T11:45:16;101179.80;;;8.59;52.09
70256;BME280;57669;52.624;-1.688;2023-02-21T11:47:41;101173.44;;;8.40;53.48
70256;BME280;57669;52.624;-1.688;2023-02-21T11:50:06;101169.20;;;8.32;52.17
70256;BME280;57669;52.624;-1.688;2023-02-21T11:52:31;101168.09;;;9.16;50.98
70256;BME280;57669;52.624;-1.688;2023-02-21T11:54:53;101168.72;;;8.56;51.86
70256;BME280;57669;52.624;-1.688;2023-02-21T11:57:24;101162.11;;;8.99;50.94
70256;BME280;57669;52.624;-1.688;2023-02-21T11:59:49;101157.51;;;8.01;53.73
70256;BME280;57669;52.624;-1.688;2023-02-21T12:02:25;101152.91;;;8.85;52.23
70256;BME280;57669;52.624;-1.688;2023-02-21T12:04:47;101143.86;;;8.41;53.20
70256;BME280;57669;52.624;-1.688;2023-02-21T12:07:09;101139.46;;;8.94;51.83
70256;BME280;57669;52.624;-1.688;2023-02-21T12:09:32;101137.40;;;9.86;50.05
70256;BME280;57669;52.624;-1.688;2023-02-21T12:12:02;101124.98;;;9.06;51.61
70256;BME280;57669;52.624;-1.688;2023-02-21T12:14:33;101133.64;;;9.80;50.00
70256;BME280;57669;52.624;-1.688;2023-02-21T12:16:54;101124.42;;;9.15;51.61
70256;BME280;57669;52.624;-1.688;2023-02-21T12:19:21;101112.12;;;9.45;50.94
70256;BME280;57669;52.624;-1.688;2023-02-21T12:21:45;101115.43;;;10.96;48.10
70256;BME280;57669;52.624;-1.688;2023-02-21T12:24:18;101118.42;;;9.83;49.26
70256;BME280;57669;52.624;-1.688;2023-02-21T12:29:01;101110.08;;;9.66;51.29
70256;BME280;57669;52.624;-1.688;2023-02-21T12:31:29;101108.21;;;9.64;51.30
70256;BME280;57669;52.624;-1.688;2023-02-21T12:33:50;101108.64;;;8.58;54.05
70256;BME280;57669;52.624;-1.688;2023-02-21T12:36:19;101108.13;;;8.92;52.87
70256;BME280;57669;52.624;-1.688;2023-02-21T12:38:44;101102.37;;;8.98;52.31
70256;BME280;57669;52.624;-1.688;2023-02-21T12:41:09;101095.13;;;8.87;52.43
70256;BME280;57669;52.624;-1.688;2023-02-21T12:43:37;101089.96;;;9.87;50.00
70256;BME280;57669;52.624;-1.688;2023-02-21T12:46:00;101090.38;;;9.88;50.08
70256;BME280;57669;52.624;-1.688;2023-02-21T12:48:26;101090.91;;;9.95;50.09
70256;BME280;57669;52.624;-1.688;2023-02-21T12:50:49;101089.80;;;9.42;51.62